createdAt,value
2019-01-02T00:02:23.833Z,-1.10
2019-01-02T00:04:51.518Z,-1.09
2019-01-02T00:07:31.400Z,-1.09
2019-01-02T00:09:59.549Z,-1.19
2019-01-02T00:12:47.111Z,-1.20
2019-01-02T00:15:17.919Z,-1.11
2019-01-02T00:17:58.285Z,-1.25
2019-01-02T00:20:35.000Z,-1.18
2019-01-02T00:23:15.588Z,-1.24
2019-01-02T00:26:19.355Z,-1.23
2019-01-02T00:28:49.917Z,-1.29
2019-01-02T00:42:54.499Z,-1.31
2019-01-02T00:45:23.625Z,-1.29
2019-01-02T00:48:03.300Z,-1.29
2019-01-02T00:51:16.669Z,-1.26
2019-01-02T00:53:44.380Z,-1.18
2019-01-02T00:56:12.186Z,-1.25
2019-01-02T00:58:40.301Z,-1.30
2019-01-02T01:01:08.449Z,-1.32
2019-01-02T01:03:36.370Z,-1.35
2019-01-02T01:06:04.613Z,-1.33
2019-01-02T01:08:33.102Z,-1.35
2019-01-02T01:11:13.383Z,-1.36
2019-01-02T01:13:44.116Z,-1.40
2019-01-02T01:16:11.986Z,-1.42
2019-01-02T01:18:40.112Z,-1.42
2019-01-02T01:23:50.624Z,-1.38
2019-01-02T01:26:18.524Z,-1.42
2019-01-02T01:28:46.606Z,-1.54
2019-01-02T01:31:14.406Z,-1.56
2019-01-02T01:33:42.263Z,-1.51
2019-01-02T01:36:22.832Z,-1.56
2019-01-02T01:38:50.691Z,-1.61
2019-01-02T01:41:18.446Z,-1.56
2019-01-02T01:44:17.193Z,-1.61
2019-01-02T01:47:16.941Z,-1.70
2019-01-02T01:49:44.773Z,-1.72
2019-01-02T01:52:12.605Z,-1.64
2019-01-02T01:54:40.913Z,-1.66
2019-01-02T01:57:22.344Z,-1.64
2019-01-02T01:59:50.150Z,-1.64
2019-01-02T02:02:39.478Z,-1.63
2019-01-02T02:05:07.693Z,-1.62
2019-01-02T02:07:35.460Z,-1.75
2019-01-02T02:10:07.812Z,-1.70
2019-01-02T02:12:35.629Z,-1.65
2019-01-02T02:15:03.872Z,-1.63
2019-01-02T02:17:31.860Z,-1.59
2019-01-02T02:19:59.992Z,-1.52
2019-01-02T02:22:41.531Z,-1.39
2019-01-02T02:25:14.344Z,-1.42
2019-01-02T02:27:42.583Z,-1.41
2019-01-02T02:30:25.644Z,-1.27
2019-01-02T02:35:53.787Z,-1.12
2019-01-02T02:38:22.071Z,-0.95
2019-01-02T02:41:04.650Z,-0.85
2019-01-02T02:43:45.878Z,-0.76
2019-01-02T02:49:26.258Z,-0.29
2019-01-02T02:51:54.231Z,0.21
2019-01-02T02:54:22.090Z,0.86
2019-01-02T02:57:02.836Z,1.14
2019-01-02T02:59:30.886Z,1.42
2019-01-02T03:02:11.092Z,1.79
2019-01-02T03:04:54.228Z,2.10
2019-01-02T03:07:34.345Z,2.26
2019-01-02T03:10:23.675Z,2.31
2019-01-02T03:12:51.855Z,2.27
2019-01-02T03:15:41.163Z,2.19
2019-01-02T03:18:09.083Z,1.84
2019-01-02T03:20:37.510Z,1.65
2019-01-02T03:23:05.568Z,1.59
2019-01-02T03:26:06.497Z,1.54
2019-01-02T03:28:36.398Z,1.57
2019-01-02T03:31:23.776Z,1.41
2019-01-02T03:34:10.027Z,1.33
2019-01-02T03:36:40.190Z,1.26
2019-01-02T03:39:20.107Z,1.12
2019-01-02T03:42:00.236Z,1.13
2019-01-02T03:44:59.755Z,1.16
2019-01-02T03:47:59.927Z,1.25
2019-01-02T03:50:39.872Z,1.51
2019-01-02T03:53:07.652Z,1.80
2019-01-02T03:55:35.492Z,1.92
2019-01-02T03:58:03.303Z,2.26
2019-01-02T04:00:31.224Z,2.37
2019-01-02T04:02:59.011Z,2.52
2019-01-02T04:05:27.058Z,2.63
2019-01-02T04:08:05.450Z,2.72
2019-01-02T04:14:11.829Z,2.67
2019-01-02T04:16:39.678Z,2.70
2019-01-02T04:19:40.527Z,2.69
2019-01-02T04:22:20.918Z,2.69
2019-01-02T04:24:48.693Z,2.69
2019-01-02T04:27:16.463Z,2.51
2019-01-02T04:29:44.336Z,2.53
2019-01-02T04:32:12.081Z,2.52
2019-01-02T04:34:42.918Z,2.46
2019-01-02T04:37:10.555Z,2.41
2019-01-02T04:39:38.316Z,2.43
2019-01-02T04:42:06.004Z,2.52
2019-01-02T04:44:33.772Z,2.52
2019-01-02T04:47:01.445Z,2.39
2019-01-02T04:49:29.167Z,2.33
2019-01-02T04:51:56.806Z,2.29
2019-01-02T04:54:24.531Z,2.13
2019-01-02T04:56:52.404Z,2.05
2019-01-02T04:59:20.099Z,2.02
2019-01-02T05:01:47.914Z,1.95
2019-01-02T05:04:28.461Z,1.93
2019-01-02T05:07:09.124Z,1.90
2019-01-02T05:12:39.315Z,1.74
2019-01-02T05:15:08.451Z,1.60
2019-01-02T05:17:36.441Z,1.58
2019-01-02T05:20:06.295Z,1.44
2019-01-02T05:22:37.474Z,1.44
2019-01-02T05:25:17.616Z,1.43
2019-01-02T05:27:45.407Z,1.36
2019-01-02T05:30:26.412Z,1.37
2019-01-02T05:32:54.242Z,1.35
2019-01-02T05:38:34.897Z,1.29
2019-01-02T05:41:03.098Z,1.23
2019-01-02T05:43:46.409Z,1.16
2019-01-02T05:46:14.266Z,1.11
2019-01-02T05:48:42.060Z,1.04
2019-01-02T05:51:09.883Z,1.03
2019-01-02T05:53:37.725Z,0.95
2019-01-02T05:56:05.486Z,0.85
2019-01-02T05:58:33.345Z,0.78
2019-01-02T06:01:01.378Z,0.69
2019-01-02T06:04:22.703Z,0.60
2019-01-02T06:06:50.544Z,0.55
2019-01-02T06:09:18.223Z,0.42
2019-01-02T06:11:45.914Z,0.50
2019-01-02T06:14:13.611Z,0.64
2019-01-02T06:16:44.243Z,0.66
2019-01-02T06:19:11.993Z,0.66
2019-01-02T06:21:39.758Z,0.70
2019-01-02T06:24:07.492Z,0.82
2019-01-02T06:26:35.283Z,0.98
2019-01-02T06:29:03.153Z,1.04
2019-01-02T06:31:33.777Z,1.18
2019-01-02T06:34:01.542Z,1.20
2019-01-02T06:36:29.231Z,1.27
2019-01-02T06:38:57.062Z,1.46
2019-01-02T06:41:25.189Z,1.45
2019-01-02T06:43:53.087Z,1.58
2019-01-02T06:49:20.614Z,1.72
2019-01-02T06:51:48.349Z,1.78
2019-01-02T06:54:16.104Z,1.80
2019-01-02T06:56:56.643Z,1.79
2019-01-02T06:59:36.793Z,1.85
2019-01-02T07:04:55.906Z,2.02
2019-01-02T07:07:48.354Z,2.14
2019-01-02T07:10:16.093Z,2.22
2019-01-02T07:12:44.188Z,2.32
2019-01-02T07:15:11.941Z,2.29
2019-01-02T07:17:44.867Z,2.51
2019-01-02T07:20:14.272Z,2.70
2019-01-02T07:22:42.125Z,2.86
2019-01-02T07:25:09.778Z,2.91
2019-01-02T07:27:37.544Z,3.06
2019-01-02T07:30:37.092Z,3.06
2019-01-02T07:33:05.037Z,3.15
2019-01-02T07:36:11.630Z,2.97
2019-01-02T07:39:19.986Z,3.00
2019-01-02T07:42:26.636Z,2.94
2019-01-02T07:45:33.634Z,2.96
2019-01-02T07:48:40.790Z,2.83
2019-01-02T07:51:48.048Z,2.85
2019-01-02T07:58:13.727Z,2.97
2019-01-02T08:01:18.363Z,3.49
2019-01-02T08:04:25.482Z,4.05
2019-01-02T08:07:33.719Z,4.38
2019-01-02T08:10:40.407Z,4.75
2019-01-02T08:13:46.977Z,5.04
2019-01-02T08:16:54.320Z,5.34
2019-01-02T08:20:01.409Z,5.31
2019-01-02T08:22:54.399Z,5.83
2019-01-02T08:26:00.895Z,5.73
2019-01-02T08:29:07.597Z,6.06
2019-01-02T08:32:14.730Z,5.77
2019-01-02T08:35:21.441Z,5.70
2019-01-02T08:38:27.998Z,6.08
2019-01-02T08:44:24.880Z,6.44
2019-01-02T08:47:32.749Z,7.05
2019-01-02T08:50:13.343Z,6.82
2019-01-02T08:52:57.236Z,7.81
2019-01-02T08:56:02.191Z,7.46
2019-01-02T08:59:08.646Z,7.47
2019-01-02T09:02:15.184Z,8.82
2019-01-02T09:05:19.936Z,9.04
2019-01-02T09:08:27.903Z,9.16
2019-01-02T09:11:34.459Z,8.61
2019-01-02T09:14:40.991Z,9.14
2019-01-02T09:17:47.529Z,9.84
2019-01-02T09:20:51.787Z,10.60
2019-01-02T09:23:58.273Z,10.07
2019-01-02T09:27:04.776Z,10.53
2019-01-02T09:30:11.572Z,10.11
2019-01-02T09:33:18.827Z,10.49
2019-01-02T09:36:16.371Z,10.41
2019-01-02T09:39:22.889Z,10.10
2019-01-02T09:42:23.576Z,9.68
2019-01-02T09:45:30.107Z,10.27
2019-01-02T09:48:32.750Z,10.21
2019-01-02T09:51:39.247Z,10.33
2019-01-02T09:54:45.877Z,10.48
2019-01-02T10:00:45.949Z,9.63
2019-01-02T10:03:49.247Z,9.18
2019-01-02T10:06:55.769Z,8.19
2019-01-02T10:10:02.350Z,8.25
2019-01-02T10:12:48.240Z,7.91
2019-01-02T10:15:54.808Z,8.04
2019-01-02T10:19:01.347Z,7.95
2019-01-02T10:22:07.916Z,8.37
2019-01-02T10:25:14.448Z,8.06
2019-01-02T10:27:54.992Z,8.11
2019-01-02T10:31:02.478Z,7.25
2019-01-02T10:33:55.492Z,6.23
2019-01-02T10:37:02.136Z,5.45
2019-01-02T10:40:08.760Z,5.38
2019-01-02T10:43:15.788Z,5.61
2019-01-02T10:46:22.298Z,5.76
2019-01-02T10:49:30.761Z,5.97
2019-01-02T10:52:37.268Z,6.38
2019-01-02T10:55:43.801Z,6.63
2019-01-02T10:58:50.707Z,6.78
2019-01-02T11:01:57.166Z,7.37
2019-01-02T11:04:52.171Z,6.84
2019-01-02T11:07:58.739Z,7.58
2019-01-02T11:11:05.544Z,8.06
2019-01-02T11:14:00.098Z,8.25
2019-01-02T11:17:06.682Z,8.06
2019-01-02T11:20:13.540Z,8.72
2019-01-02T11:23:21.003Z,7.78
2019-01-02T11:26:27.616Z,8.07
2019-01-02T11:29:23.380Z,8.05
2019-01-02T11:32:29.910Z,7.41
2019-01-02T11:35:36.453Z,7.11
2019-01-02T11:38:27.480Z,6.60
2019-01-02T11:41:34.027Z,6.40
2019-01-02T11:44:40.525Z,6.39
2019-01-02T11:47:08.278Z,5.90
2019-01-02T11:49:36.065Z,5.45
2019-01-02T11:52:03.745Z,5.29
2019-01-02T11:54:31.960Z,5.19
2019-01-02T11:57:12.953Z,5.08
2019-01-02T11:59:40.769Z,4.85
2019-01-02T12:02:08.615Z,4.49
2019-01-02T12:04:36.690Z,4.15
2019-01-02T12:07:04.572Z,3.95
2019-01-02T12:09:32.349Z,3.65
2019-01-02T12:12:00.035Z,3.77
2019-01-02T12:14:27.773Z,4.24
2019-01-02T12:16:55.580Z,4.72
2019-01-02T12:19:23.358Z,5.05
2019-01-02T12:21:51.248Z,5.41
2019-01-02T12:24:18.975Z,5.36
2019-01-02T12:26:46.651Z,5.42
2019-01-02T12:29:14.411Z,5.15
2019-01-02T12:31:42.460Z,4.79
2019-01-02T12:34:10.259Z,4.77
2019-01-02T12:36:38.100Z,5.13
2019-01-02T12:39:06.270Z,5.10
2019-01-02T12:41:33.968Z,5.06
2019-01-02T12:44:01.684Z,5.06
2019-01-02T12:46:29.394Z,4.93
2019-01-02T12:58:01.015Z,3.74
2019-01-02T13:01:01.568Z,3.84
2019-01-02T13:10:47.586Z,5.00
2019-01-02T13:13:54.023Z,5.28
2019-01-02T13:17:06.221Z,5.14
2019-01-02T13:20:10.189Z,4.94
2019-01-02T13:23:16.748Z,4.66
2019-01-02T13:26:23.239Z,4.49
2019-01-02T13:29:29.678Z,4.44
2019-01-02T13:32:35.032Z,4.19
2019-01-02T13:35:41.719Z,4.12
2019-01-02T13:38:48.195Z,4.35
2019-01-02T13:41:54.636Z,4.79
2019-01-02T13:44:58.196Z,4.86
2019-01-02T13:51:08.361Z,4.37
2019-01-02T13:59:56.531Z,3.63
2019-01-02T14:05:58.794Z,3.66
2019-01-02T14:08:59.075Z,3.74
2019-01-02T14:15:00.635Z,3.55
2019-01-02T14:20:37.140Z,3.10
2019-01-02T14:23:37.435Z,3.15
2019-01-02T14:26:37.644Z,3.05
2019-01-02T14:29:37.775Z,2.96
2019-01-02T14:35:26.413Z,2.78
2019-01-02T14:38:28.224Z,2.54
2019-01-02T14:41:28.371Z,2.25
2019-01-02T14:44:29.889Z,1.78
2019-01-02T14:49:59.002Z,1.37
2019-01-02T14:52:58.460Z,1.15
2019-01-02T14:58:59.261Z,1.01
2019-01-02T15:01:27.436Z,0.84
2019-01-02T15:03:55.479Z,0.71
2019-01-02T15:10:32.349Z,0.88
2019-01-02T15:13:11.505Z,0.77
2019-01-02T15:24:26.058Z,0.75
2019-01-02T15:30:08.763Z,0.52
2019-01-02T15:35:49.064Z,0.28
2019-01-02T15:38:59.298Z,0.12
2019-01-02T15:41:58.953Z,0.14
2019-01-02T15:44:59.475Z,0.13
2019-01-02T15:47:41.241Z,0.15
2019-01-02T15:53:43.624Z,0.06
2019-01-02T16:02:30.200Z,0.13
2019-01-02T16:05:30.202Z,0.07
2019-01-02T16:11:38.978Z,0.04
2019-01-02T16:14:26.374Z,0.02
2019-01-02T16:17:08.207Z,0.00
2019-01-02T16:19:58.240Z,-0.08
2019-01-02T16:22:39.408Z,-0.09
2019-01-02T16:25:28.954Z,-0.15
2019-01-02T16:28:29.203Z,-0.19
2019-01-02T16:31:08.941Z,-0.23
2019-01-02T16:33:58.856Z,-0.18
2019-01-02T16:36:41.443Z,-0.15
2019-01-02T16:39:42.124Z,-0.11
2019-01-02T16:42:42.341Z,-0.15
2019-01-02T16:45:22.648Z,-0.18
2019-01-02T16:48:13.201Z,-0.26
2019-01-02T16:53:58.189Z,-0.36
2019-01-02T16:59:59.466Z,-0.45
2019-01-02T17:02:59.811Z,-0.48
2019-01-02T17:05:59.237Z,-0.47
2019-01-02T17:08:59.574Z,-0.56
2019-01-02T17:12:00.064Z,-0.68
2019-01-02T17:14:59.855Z,-0.77
2019-01-02T17:18:00.262Z,-0.77
2019-01-02T17:21:00.583Z,-0.98
2019-01-02T17:24:00.840Z,-1.22
2019-01-02T17:27:00.383Z,-1.25
2019-01-02T17:29:59.730Z,-1.28
2019-01-02T17:32:38.882Z,-1.41
2019-01-02T17:35:07.002Z,-1.43
2019-01-02T17:38:07.370Z,-1.43
2019-01-02T17:40:50.552Z,-1.42
2019-01-02T17:46:28.163Z,-1.60
2019-01-02T17:51:45.000Z,-1.52
2019-01-02T17:54:44.815Z,-1.70
2019-01-02T17:57:32.035Z,-1.85
2019-01-02T18:00:31.418Z,-1.78
2019-01-02T18:06:00.707Z,-1.79
2019-01-02T18:09:00.152Z,-1.78
2019-01-02T18:11:28.117Z,-1.80
2019-01-02T18:14:17.049Z,-1.90
2019-01-02T18:16:56.204Z,-2.05
2019-01-02T18:19:56.066Z,-2.04
2019-01-02T18:25:31.429Z,-2.09
2019-01-02T18:28:13.832Z,-2.15
2019-01-02T18:30:41.793Z,-2.19
2019-01-02T18:36:10.752Z,-2.21
2019-01-02T18:39:10.973Z,-2.37
2019-01-02T18:41:38.726Z,-2.28
2019-01-02T18:50:10.460Z,-2.44
2019-01-02T18:55:39.643Z,-2.55
2019-01-02T18:58:07.719Z,-2.58
2019-01-02T19:00:48.924Z,-2.61
2019-01-02T19:03:17.576Z,-2.66
2019-01-02T19:06:17.720Z,-2.70
2019-01-02T19:09:18.085Z,-2.70
2019-01-02T19:11:57.436Z,-2.69
2019-01-02T19:14:41.355Z,-2.68
2019-01-02T19:17:21.630Z,-2.71
2019-01-02T19:20:09.026Z,-2.61
2019-01-02T19:22:37.819Z,-2.67
2019-01-02T19:25:27.412Z,-2.63
2019-01-02T19:27:55.748Z,-2.60
2019-01-02T19:30:25.909Z,-2.71
2019-01-02T19:33:05.926Z,-2.65
2019-01-02T19:35:34.320Z,-2.61
2019-01-02T19:38:02.673Z,-2.70
2019-01-02T19:43:41.190Z,-2.70
2019-01-02T19:49:10.139Z,-2.66
2019-01-02T19:52:09.619Z,-2.65
2019-01-02T19:54:37.657Z,-2.70
2019-01-02T20:00:09.499Z,-2.66
2019-01-02T20:03:18.129Z,-2.66
2019-01-02T20:05:45.957Z,-2.61
2019-01-02T20:08:33.144Z,-2.22
2019-01-02T20:11:00.936Z,-1.92
2019-01-02T20:16:38.217Z,-1.76
2019-01-02T20:19:37.998Z,-1.60
2019-01-02T20:22:05.859Z,-1.59
2019-01-02T20:25:05.637Z,-1.45
2019-01-02T20:27:44.858Z,-1.37
2019-01-02T20:30:12.768Z,-1.30
2019-01-02T20:33:12.379Z,-1.26
2019-01-02T20:35:40.219Z,-1.38
2019-01-02T20:38:30.438Z,-1.26
2019-01-02T20:41:30.180Z,-1.26
2019-01-02T20:44:30.286Z,-1.23
2019-01-02T20:47:32.774Z,-1.22
2019-01-02T20:53:01.898Z,-1.19
2019-01-02T20:56:02.092Z,-1.17
2019-01-02T20:58:41.418Z,-1.19
2019-01-02T21:01:41.313Z,-1.22
2019-01-02T21:07:10.715Z,-1.14
2019-01-02T21:09:58.172Z,-1.12
2019-01-02T21:12:58.123Z,-1.10
2019-01-02T21:15:25.916Z,-1.11
2019-01-02T21:18:25.506Z,-1.06
2019-01-02T21:23:34.952Z,-1.01
2019-01-02T21:35:06.115Z,-0.88
2019-01-02T21:38:06.079Z,-0.85
2019-01-02T21:41:06.512Z,-0.79
2019-01-02T21:44:06.520Z,-0.80
2019-01-02T21:46:55.553Z,-0.74
2019-01-02T21:52:47.101Z,-0.88
2019-01-02T21:55:36.250Z,-0.88
2019-01-02T21:58:17.446Z,-0.85
2019-01-02T22:01:17.534Z,-0.84
2019-01-02T22:04:17.831Z,-0.88
2019-01-02T22:07:05.903Z,-0.88
2019-01-02T22:09:58.296Z,-0.97
2019-01-02T22:12:58.198Z,-0.98
2019-01-02T22:15:51.085Z,-0.98
2019-01-02T22:18:31.531Z,-1.04
2019-01-02T22:21:22.574Z,-1.07
2019-01-02T22:24:22.140Z,-1.11
2019-01-02T22:27:09.541Z,-1.12
2019-01-02T22:32:38.579Z,-1.06
2019-01-02T22:35:27.822Z,-1.05
2019-01-02T22:38:27.963Z,-1.05
2019-01-02T22:44:28.826Z,-1.02
2019-01-02T22:50:19.965Z,-1.07
2019-01-02T22:53:19.409Z,-1.04
2019-01-02T23:05:08.245Z,-0.91
2019-01-02T23:14:40.826Z,-0.82
2019-01-02T23:17:49.393Z,-0.84
2019-01-02T23:29:58.405Z,-0.85
2019-01-02T23:32:58.520Z,-0.82
2019-01-02T23:36:06.933Z,-0.92
2019-01-02T23:39:06.315Z,-0.89
2019-01-02T23:44:55.275Z,-0.96
2019-01-02T23:48:04.548Z,-0.91
2019-01-02T23:53:55.533Z,-1.00
2019-01-02T23:59:51.982Z,-1.07
